Eagan, MN

4:24 PM CDT on August 03, 2015 (GMT -0500)
Nordic Woods | | Change Station
CLOSE
Current Station
Personal Weather Station
Location: Apple Valley, MN
Elevation: 1050 ft
Nearby Weather Stations

Elev 1050 ft 44.76 °N, 93.20 °W | Updated 3 minutes ago

Clear
Clear
78.6 °F
Feels Like 79 °F
N
0.0
Wind Variable Wind from NNE

Today
High -- | Low -- °F
--% Chance of Precip.
Yesterday
High -- | Low -- °F
Precip. -- in
6:00 AM 8:36 PM
Waning Gibbous, 84% visible
Pressure 29.89 in
Visibility 10.0 miles
Clouds Scattered Clouds 7000 ft
Heat Index 79 °F
Dew Point 52 °F
Humidity 40%
Rainfall 0.00 in
Snow Depth Not available.
UV 6 out of 12
Pollen 8.00 out of 12
Air Quality Not available.
Flu Activity Not available.
METAR KMSP 032053Z 28014G19KT 10SM SCT070 26/08 A2990 RMK AO2 SLP120 T02610083 57006

More Conditions Fewer Conditions

Pressure 29.89 in
Visibility 10.0 miles
Clouds Scattered Clouds 7000 ft
Heat Index 79 °F
Dew Point 52 °F
Humidity 40%
Rainfall 0.00 in
Snow Depth Not available.
UV 6 out of 12
Pollen 8.00 out of 12
Air Quality Not available.
Flu Activity Not available.
METAR KMSP 032053Z 28014G19KT 10SM SCT070 26/08 A2990 RMK AO2 SLP120 T02610083 57006

More Conditions Fewer Conditions

10-Day Weather Forecast

×

Almanac

Astronomy

Aug. 03, 2015 Rise Set
Actual Time
Civil Twilight
Nautical Twilight
Astronomical Twilight
Moon
Length of Visible Light
Length of Day
Tomorrow will be .
, % of the Moon is Illuminated

Today's Extremes

State Highs State Lows

Community

WunderPhotos

Upload Photos

1,843,770 photos uploaded!

WunderBlogs® & News

Nearby

Air Quality

  Air Quality AQ Index Pollutant
Not available.

Snow Depth

Station Depth Elevation

Earthquake Activity

City Distance Mag. Time & Date
Minimum magnitude displayed is 2.5.

Coastal Water Temperatures

Place Temperature

Stations

Nearby Weather Stations

Station Location Temp. Windchill Dew Point Humidity Wind Precip. Elev Updated Type